sensor_id;sensor_type;location;lat;lon;timestamp;noise_LAeq;noise_LA_min;noise_LA_max;noise_LA01;noise_LA95
67294;Laerm;58160;51.434;5.978;2022-08-19T00:00:09;36.90;29.32;45.76;;
67294;Laerm;58160;51.434;5.978;2022-08-19T00:00:19;32.48;29.59;44.85;;
67294;Laerm;58160;51.434;5.978;2022-08-19T00:00:30;31.25;29.58;43.89;;
67294;Laerm;58160;51.434;5.978;2022-08-19T00:00:40;32.41;29.67;46.41;;
67294;Laerm;58160;51.434;5.978;2022-08-19T00:00:50;30.68;29.24;33.12;;
67294;Laerm;58160;51.434;5.978;2022-08-19T00:01:01;31.17;29.26;36.95;;
67294;Laerm;58160;51.434;5.978;2022-08-19T00:01:13;33.37;29.31;55.23;;
67294;Laerm;58160;51.434;5.978;2022-08-19T00:01:24;32.21;29.59;47.33;;
67294;Laerm;58160;51.434;5.978;2022-08-19T00:01:36;31.85;29.38;45.59;;
67294;Laerm;58160;51.434;5.978;2022-08-19T00:01:47;31.88;29.62;45.56;;
67294;Laerm;58160;51.434;5.978;2022-08-19T00:01:58;32.14;29.37;44.86;;
67294;Laerm;58160;51.434;5.978;2022-08-19T00:02:08;30.75;29.21;32.06;;
67294;Laerm;58160;51.434;5.978;2022-08-19T00:02:19;30.63;29.54;33.17;;
67294;Laerm;58160;51.434;5.978;2022-08-19T00:02:29;32.68;29.69;45.06;;
67294;Laerm;58160;51.434;5.978;2022-08-19T00:02:39;30.82;29.37;32.85;;
67294;Laerm;58160;51.434;5.978;2022-08-19T00:02:50;31.02;29.92;38.48;;
67294;Laerm;58160;51.434;5.978;2022-08-19T00:03:00;32.31;29.62;45.53;;
67294;Laerm;58160;51.434;5.978;2022-08-19T00:03:10;31.34;29.95;42.12;;
67294;Laerm;58160;51.434;5.978;2022-08-19T00:03:21;32.89;29.67;45.79;;
67294;Laerm;58160;51.434;5.978;2022-08-19T00:03:31;30.83;29.40;32.29;;
67294;Laerm;58160;51.434;5.978;2022-08-19T00:03:41;30.80;29.58;32.26;;
67294;Laerm;58160;51.434;5.978;2022-08-19T00:03:51;30.83;29.58;32.17;;
67294;Laerm;58160;51.434;5.978;2022-08-19T00:04:03;31.04;29.52;38.10;;
67294;Laerm;58160;51.434;5.978;2022-08-19T00:04:14;32.14;29.53;47.13;;
67294;Laerm;58160;51.434;5.978;2022-08-19T00:04:26;31.12;29.62;40.72;;
67294;Laerm;58160;51.434;5.978;2022-08-19T00:04:37;32.10;29.65;45.20;;
67294;Laerm;58160;51.434;5.978;2022-08-19T00:04:47;30.87;29.64;36.01;;
67294;Laerm;58160;51.434;5.978;2022-08-19T00:05:03;30.95;29.29;38.36;;
67294;Laerm;58160;51.434;5.978;2022-08-19T00:05:14;31.87;29.34;45.50;;
67294;Laerm;58160;51.434;5.978;2022-08-19T00:05:25;30.91;29.18;40.57;;
67294;Laerm;58160;51.434;5.978;2022-08-19T00:05:35;30.54;29.27;32.25;;
67294;Laerm;58160;51.434;5.978;2022-08-19T00:05:46;30.45;28.93;32.05;;
67294;Laerm;58160;51.434;5.978;2022-08-19T00:05:56;30.60;29.41;32.59;;
67294;Laerm;58160;51.434;5.978;2022-08-19T00:06:06;30.71;29.79;33.36;;
67294;Laerm;58160;51.434;5.978;2022-08-19T00:06:17;31.12;29.49;39.77;;
67294;Laerm;58160;51.434;5.978;2022-08-19T00:06:28;32.49;29.54;47.11;;
67294;Laerm;58160;51.434;5.978;2022-08-19T00:06:40;30.54;29.54;31.73;;
67294;Laerm;58160;51.434;5.978;2022-08-19T00:06:51;32.66;29.24;47.79;;
67294;Laerm;58160;51.434;5.978;2022-08-19T00:07:03;31.65;29.69;40.16;;
67294;Laerm;58160;51.434;5.978;2022-08-19T00:07:13;32.38;30.38;44.03;;
67294;Laerm;58160;51.434;5.978;2022-08-19T00:07:23;32.68;30.64;36.66;;
67294;Laerm;58160;51.434;5.978;2022-08-19T00:07:34;31.44;29.86;35.96;;
67294;Laerm;58160;51.434;5.978;2022-08-19T00:07:44;31.87;29.50;47.04;;
67294;Laerm;58160;51.434;5.978;2022-08-19T00:07:54;31.29;30.01;40.65;;
67294;Laerm;58160;51.434;5.978;2022-08-19T00:08:05;32.23;29.87;46.28;;
67294;Laerm;58160;51.434;5.978;2022-08-19T00:08:15;31.31;29.28;40.58;;
67294;Laerm;58160;51.434;5.978;2022-08-19T00:08:25;30.74;29.71;32.28;;
67294;Laerm;58160;51.434;5.978;2022-08-19T00:08:36;31.01;29.79;32.36;;
67294;Laerm;58160;51.434;5.978;2022-08-19T00:08:46;31.20;30.09;32.73;;
67294;Laerm;58160;51.434;5.978;2022-08-19T00:08:57;31.44;30.02;37.31;;
67294;Laerm;58160;51.434;5.978;2022-08-19T00:09:08;31.66;29.75;43.80;;
67294;Laerm;58160;51.434;5.978;2022-08-19T00:09:20;31.88;30.04;44.92;;
67294;Laerm;58160;51.434;5.978;2022-08-19T00:09:31;32.25;29.90;44.22;;
67294;Laerm;58160;51.434;5.978;2022-08-19T00:09:41;37.25;30.63;45.31;;
67294;Laerm;58160;51.434;5.978;2022-08-19T00:09:52;50.34;35.00;58.28;;
67294;Laerm;58160;51.434;5.978;2022-08-19T00:10:04;34.50;32.06;42.06;;
67294;Laerm;58160;51.434;5.978;2022-08-19T00:10:15;32.82;30.99;38.87;;
67294;Laerm;58160;51.434;5.978;2022-08-19T00:10:26;32.67;31.14;34.95;;
67294;Laerm;58160;51.434;5.978;2022-08-19T00:10:36;32.35;30.55;34.79;;
67294;Laerm;58160;51.434;5.978;2022-08-19T00:10:46;31.65;30.06;38.07;;
67294;Laerm;58160;51.434;5.978;2022-08-19T00:10:57;32.33;29.57;47.79;;
67294;Laerm;58160;51.434;5.978;2022-08-19T00:11:08;31.21;30.00;36.44;;
67294;Laerm;58160;51.434;5.978;2022-08-19T00:11:18;32.62;29.65;46.31;;
67294;Laerm;58160;51.434;5.978;2022-08-19T00:11:30;30.93;29.90;32.13;;
67294;Laerm;58160;51.434;5.978;2022-08-19T00:11:41;31.24;29.60;39.25;;
67294;Laerm;58160;51.434;5.978;2022-08-19T00:11:53;31.32;29.86;39.52;;
67294;Laerm;58160;51.434;5.978;2022-08-19T00:12:05;32.21;29.82;45.74;;
67294;Laerm;58160;51.434;5.978;2022-08-19T00:12:15;31.67;29.86;43.95;;
67294;Laerm;58160;51.434;5.978;2022-08-19T00:12:26;30.87;29.58;32.29;;
67294;Laerm;58160;51.434;5.978;2022-08-19T00:12:37;31.14;30.02;32.75;;
67294;Laerm;58160;51.434;5.978;2022-08-19T00:12:47;32.34;30.77;34.32;;
67294;Laerm;58160;51.434;5.978;2022-08-19T00:12:58;32.04;30.25;38.69;;
67294;Laerm;58160;51.434;5.978;2022-08-19T00:13:08;32.98;30.44;45.89;;
67294;Laerm;58160;51.434;5.978;2022-08-19T00:13:19;35.21;30.65;46.60;;
67294;Laerm;58160;51.434;5.978;2022-08-19T00:13:29;46.56;33.26;55.16;;
67294;Laerm;58160;51.434;5.978;2022-08-19T00:13:40;31.79;30.05;35.25;;
67294;Laerm;58160;51.434;5.978;2022-08-19T00:13:50;32.61;29.62;47.22;;
67294;Laerm;58160;51.434;5.978;2022-08-19T00:14:00;31.25;30.01;36.84;;
67294;Laerm;58160;51.434;5.978;2022-08-19T00:14:11;31.47;29.91;40.35;;
67294;Laerm;58160;51.434;5.978;2022-08-19T00:14:22;32.68;29.59;49.21;;
67294;Laerm;58160;51.434;5.978;2022-08-19T00:14:33;31.08;29.78;36.33;;
67294;Laerm;58160;51.434;5.978;2022-08-19T00:14:44;31.46;29.83;38.82;;
67294;Laerm;58160;51.434;5.978;2022-08-19T00:14:54;32.62;29.95;45.83;;
67294;Laerm;58160;51.434;5.978;2022-08-19T00:15:06;31.59;30.14;33.26;;
67294;Laerm;58160;51.434;5.978;2022-08-19T00:15:17;31.83;29.93;42.12;;
67294;Laerm;58160;51.434;5.978;2022-08-19T00:15:28;31.81;29.76;43.58;;
67294;Laerm;58160;51.434;5.978;2022-08-19T00:15:38;31.51;29.61;40.89;;
67294;Laerm;58160;51.434;5.978;2022-08-19T00:15:49;31.40;29.65;41.44;;
67294;Laerm;58160;51.434;5.978;2022-08-19T00:15:59;30.89;29.03;32.41;;
67294;Laerm;58160;51.434;5.978;2022-08-19T00:16:10;31.41;29.62;41.65;;
67294;Laerm;58160;51.434;5.978;2022-08-19T00:16:20;31.79;29.63;44.47;;
67294;Laerm;58160;51.434;5.978;2022-08-19T00:16:31;32.85;29.66;48.90;;
67294;Laerm;58160;51.434;5.978;2022-08-19T00:16:42;30.96;29.83;32.29;;
67294;Laerm;58160;51.434;5.978;2022-08-19T00:16:53;31.24;29.89;38.37;;
67294;Laerm;58160;51.434;5.978;2022-08-19T00:17:05;32.14;29.66;46.39;;
67294;Laerm;58160;51.434;5.978;2022-08-19T00:17:16;30.86;29.53;32.38;;
67294;Laerm;58160;51.434;5.978;2022-08-19T00:17:26;30.87;29.65;32.84;;
67294;Laerm;58160;51.434;5.978;2022-08-19T00:17:41;30.88;29.56;32.35;;
67294;Laerm;58160;51.434;5.978;2022-08-19T00:17:51;30.85;29.30;38.18;;
67294;Laerm;58160;51.434;5.978;2022-08-19T00:18:02;32.62;29.34;45.54;;
67294;Laerm;58160;51.434;5.978;2022-08-19T00:18:12;30.83;29.42;34.78;;
67294;Laerm;58160;51.434;5.978;2022-08-19T00:18:22;30.92;29.53;37.09;;
67294;Laerm;58160;51.434;5.978;2022-08-19T00:18:33;30.88;29.69;32.53;;
67294;Laerm;58160;51.434;5.978;2022-08-19T00:18:44;30.95;29.50;32.28;;
67294;Laerm;58160;51.434;5.978;2022-08-19T00:18:54;31.12;29.74;36.72;;
67294;Laerm;58160;51.434;5.978;2022-08-19T00:19:08;32.26;29.86;49.05;;
67294;Laerm;58160;51.434;5.978;2022-08-19T00:19:18;30.87;29.73;35.35;;
67294;Laerm;58160;51.434;5.978;2022-08-19T00:19:29;30.86;29.52;31.98;;
67294;Laerm;58160;51.434;5.978;2022-08-19T00:19:40;30.87;29.67;33.16;;
67294;Laerm;58160;51.434;5.978;2022-08-19T00:19:50;30.80;29.77;31.77;;
67294;Laerm;58160;51.434;5.978;2022-08-19T00:20:01;30.88;29.94;32.11;;
67294;Laerm;58160;51.434;5.978;2022-08-19T00:20:13;31.26;29.70;39.85;;
67294;Laerm;58160;51.434;5.978;2022-08-19T00:20:24;33.52;29.58;49.50;;
67294;Laerm;58160;51.434;5.978;2022-08-19T00:20:34;30.86;29.56;32.37;;
67294;Laerm;58160;51.434;5.978;2022-08-19T00:20:44;30.77;29.67;32.36;;
67294;Laerm;58160;51.434;5.978;2022-08-19T00:20:55;30.74;29.64;32.31;;
67294;Laerm;58160;51.434;5.978;2022-08-19T00:21:05;30.80;29.66;32.99;;
67294;Laerm;58160;51.434;5.978;2022-08-19T00:21:17;30.81;29.48;33.62;;
67294;Laerm;58160;51.434;5.978;2022-08-19T00:21:28;31.50;29.35;42.05;;
67294;Laerm;58160;51.434;5.978;2022-08-19T00:21:38;31.82;29.29;43.91;;
67294;Laerm;58160;51.434;5.978;2022-08-19T00:21:49;32.27;29.64;48.23;;
67294;Laerm;58160;51.434;5.978;2022-08-19T00:22:00;30.84;29.45;32.57;;
67294;Laerm;58160;51.434;5.978;2022-08-19T00:22:10;32.63;29.83;49.27;;
67294;Laerm;58160;51.434;5.978;2022-08-19T00:22:21;34.45;29.56;55.98;;
67294;Laerm;58160;51.434;5.978;2022-08-19T00:22:31;32.94;29.51;47.61;;
67294;Laerm;58160;51.434;5.978;2022-08-19T00:22:43;31.47;29.35;45.84;;
67294;Laerm;58160;51.434;5.978;2022-08-19T00:22:54;31.20;29.19;40.49;;
67294;Laerm;58160;51.434;5.978;2022-08-19T00:23:04;32.49;29.59;46.41;;
67294;Laerm;58160;51.434;5.978;2022-08-19T00:23:15;32.18;29.47;47.67;;
67294;Laerm;58160;51.434;5.978;2022-08-19T00:23:26;30.93;29.86;32.24;;
67294;Laerm;58160;51.434;5.978;2022-08-19T00:23:37;31.01;29.79;32.58;;
67294;Laerm;58160;51.434;5.978;2022-08-19T00:23:47;31.65;30.24;33.50;;
67294;Laerm;58160;51.434;5.978;2022-08-19T00:23:57;32.12;29.78;37.14;;
67294;Laerm;58160;51.434;5.978;2022-08-19T00:24:08;33.04;30.12;47.24;;
67294;Laerm;58160;51.434;5.978;2022-08-19T00:24:19;32.38;30.31;44.35;;
67294;Laerm;58160;51.434;5.978;2022-08-19T00:24:29;31.84;30.00;34.00;;
67294;Laerm;58160;51.434;5.978;2022-08-19T00:24:40;32.82;30.79;35.07;;
67294;Laerm;58160;51.434;5.978;2022-08-19T00:24:51;34.27;30.47;38.59;;
67294;Laerm;58160;51.434;5.978;2022-08-19T00:25:02;31.96;30.22;43.34;;
67294;Laerm;58160;51.434;5.978;2022-08-19T00:25:12;31.65;29.51;45.44;;
67294;Laerm;58160;51.434;5.978;2022-08-19T00:25:23;31.27;29.30;42.05;;
67294;Laerm;58160;51.434;5.978;2022-08-19T00:25:33;30.78;29.62;34.04;;
67294;Laerm;58160;51.434;5.978;2022-08-19T00:25:43;30.66;29.51;31.83;;
67294;Laerm;58160;51.434;5.978;2022-08-19T00:25:54;32.06;29.53;47.46;;
67294;Laerm;58160;51.434;5.978;2022-08-19T00:26:05;32.93;29.38;48.38;;
67294;Laerm;58160;51.434;5.978;2022-08-19T00:26:15;31.73;29.39;44.50;;
67294;Laerm;58160;51.434;5.978;2022-08-19T00:26:27;31.08;29.47;40.33;;
67294;Laerm;58160;51.434;5.978;2022-08-19T00:26:38;31.60;29.55;43.48;;
67294;Laerm;58160;51.434;5.978;2022-08-19T00:26:49;31.12;29.49;36.90;;
67294;Laerm;58160;51.434;5.978;2022-08-19T00:27:00;31.10;29.55;41.61;;
67294;Laerm;58160;51.434;5.978;2022-08-19T00:27:11;30.93;29.64;34.82;;
67294;Laerm;58160;51.434;5.978;2022-08-19T00:27:22;30.88;29.74;32.02;;
67294;Laerm;58160;51.434;5.978;2022-08-19T00:27:32;30.91;29.65;32.09;;
67294;Laerm;58160;51.434;5.978;2022-08-19T00:27:42;31.23;29.53;42.07;;
67294;Laerm;58160;51.434;5.978;2022-08-19T00:27:53;30.96;29.93;32.13;;
67294;Laerm;58160;51.434;5.978;2022-08-19T00:28:03;30.99;29.54;32.55;;
67294;Laerm;58160;51.434;5.978;2022-08-19T00:28:14;32.77;29.70;46.26;;
67294;Laerm;58160;51.434;5.978;2022-08-19T00:28:24;30.98;29.86;35.46;;
67294;Laerm;58160;51.434;5.978;2022-08-19T00:28:35;33.39;29.76;49.27;;
67294;Laerm;58160;51.434;5.978;2022-08-19T00:28:45;30.99;29.79;32.23;;
67294;Laerm;58160;51.434;5.978;2022-08-19T00:28:57;31.29;29.81;39.85;;
67294;Laerm;58160;51.434;5.978;2022-08-19T00:29:08;31.96;29.69;44.37;;
67294;Laerm;58160;51.434;5.978;2022-08-19T00:29:19;31.24;29.57;40.05;;
67294;Laerm;58160;51.434;5.978;2022-08-19T00:29:30;32.44;29.70;49.99;;
67294;Laerm;58160;51.434;5.978;2022-08-19T00:29:41;30.92;29.37;32.95;;
67294;Laerm;58160;51.434;5.978;2022-08-19T00:29:51;32.08;29.57;48.32;;
67294;Laerm;58160;51.434;5.978;2022-08-19T00:30:02;30.89;29.77;36.35;;
67294;Laerm;58160;51.434;5.978;2022-08-19T00:30:14;32.57;29.77;47.89;;
67294;Laerm;58160;51.434;5.978;2022-08-19T00:30:24;33.41;29.84;49.88;;
67294;Laerm;58160;51.434;5.978;2022-08-19T00:30:37;30.91;29.85;32.13;;
67294;Laerm;58160;51.434;5.978;2022-08-19T00:30:47;30.89;29.82;32.72;;
67294;Laerm;58160;51.434;5.978;2022-08-19T00:30:58;31.19;29.46;39.74;;
67294;Laerm;58160;51.434;5.978;2022-08-19T00:31:08;34.75;29.57;46.71;;
67294;Laerm;58160;51.434;5.978;2022-08-19T00:31:19;31.12;29.81;35.98;;
67294;Laerm;58160;51.434;5.978;2022-08-19T00:31:29;31.62;29.65;44.50;;
67294;Laerm;58160;51.434;5.978;2022-08-19T00:31:41;30.85;29.69;34.21;;
67294;Laerm;58160;51.434;5.978;2022-08-19T00:31:53;31.03;29.43;38.33;;
67294;Laerm;58160;51.434;5.978;2022-08-19T00:32:05;30.99;29.59;37.36;;
67294;Laerm;58160;51.434;5.978;2022-08-19T00:32:16;34.50;29.52;53.76;;
67294;Laerm;58160;51.434;5.978;2022-08-19T00:32:26;30.84;29.45;39.13;;
67294;Laerm;58160;51.434;5.978;2022-08-19T00:32:37;30.60;29.41;34.03;;
67294;Laerm;58160;51.434;5.978;2022-08-19T00:32:48;32.24;29.48;47.95;;
67294;Laerm;58160;51.434;5.978;2022-08-19T00:32:58;34.60;29.61;54.72;;
67294;Laerm;58160;51.434;5.978;2022-08-19T00:33:09;30.87;29.43;38.70;;
67294;Laerm;58160;51.434;5.978;2022-08-19T00:33:19;32.93;29.65;50.28;;
67294;Laerm;58160;51.434;5.978;2022-08-19T00:33:30;30.53;29.31;31.99;;
67294;Laerm;58160;51.434;5.978;2022-08-19T00:33:42;30.69;29.37;36.15;;
67294;Laerm;58160;51.434;5.978;2022-08-19T00:33:53;30.63;29.52;32.07;;
67294;Laerm;58160;51.434;5.978;2022-08-19T00:34:04;30.61;29.08;34.04;;
67294;Laerm;58160;51.434;5.978;2022-08-19T00:34:14;30.53;29.57;31.61;;
67294;Laerm;58160;51.434;5.978;2022-08-19T00:34:25;30.55;29.54;31.82;;
67294;Laerm;58160;51.434;5.978;2022-08-19T00:34:37;30.99;29.52;39.67;;
67294;Laerm;58160;51.434;5.978;2022-08-19T00:34:48;32.50;29.58;47.55;;
67294;Laerm;58160;51.434;5.978;2022-08-19T00:34:58;33.99;31.78;46.91;;
67294;Laerm;58160;51.434;5.978;2022-08-19T00:35:09;34.88;31.69;47.68;;
67294;Laerm;58160;51.434;5.978;2022-08-19T00:35:19;40.08;35.47;46.88;;
67294;Laerm;58160;51.434;5.978;2022-08-19T00:35:29;46.91;41.82;51.54;;
67294;Laerm;58160;51.434;5.978;2022-08-19T00:35:40;53.08;48.71;61.68;;
67294;Laerm;58160;51.434;5.978;2022-08-19T00:35:50;54.36;51.68;59.79;;
67294;Laerm;58160;51.434;5.978;2022-08-19T00:36:01;53.24;49.51;56.63;;
67294;Laerm;58160;51.434;5.978;2022-08-19T00:36:14;47.26;41.88;52.28;;
67294;Laerm;58160;51.434;5.978;2022-08-19T00:36:24;40.79;34.05;46.68;;
67294;Laerm;58160;51.434;5.978;2022-08-19T00:36:35;35.00;32.73;37.66;;
67294;Laerm;58160;51.434;5.978;2022-08-19T00:36:45;35.19;32.79;37.84;;
67294;Laerm;58160;51.434;5.978;2022-08-19T00:36:56;37.77;35.13;41.16;;
67294;Laerm;58160;51.434;5.978;2022-08-19T00:37:06;37.81;34.49;41.38;;
67294;Laerm;58160;51.434;5.978;2022-08-19T00:37:17;35.84;31.90;45.69;;
67294;Laerm;58160;51.434;5.978;2022-08-19T00:37:28;33.35;30.59;46.75;;
67294;Laerm;58160;51.434;5.978;2022-08-19T00:37:38;34.96;31.12;48.10;;
67294;Laerm;58160;51.434;5.978;2022-08-19T00:37:53;35.30;32.42;48.34;;
67294;Laerm;58160;51.434;5.978;2022-08-19T00:38:04;33.35;30.83;44.84;;
67294;Laerm;58160;51.434;5.978;2022-08-19T00:38:15;31.89;30.17;37.66;;
67294;Laerm;58160;51.434;5.978;2022-08-19T00:38:25;32.77;30.25;44.70;;
67294;Laerm;58160;51.434;5.978;2022-08-19T00:38:37;31.42;29.99;33.17;;
67294;Laerm;58160;51.434;5.978;2022-08-19T00:38:48;31.35;30.10;32.94;;
67294;Laerm;58160;51.434;5.978;2022-08-19T00:38:59;33.10;30.01;45.96;;
67294;Laerm;58160;51.434;5.978;2022-08-19T00:39:09;31.41;30.04;38.71;;
67294;Laerm;58160;51.434;5.978;2022-08-19T00:39:20;31.64;29.52;42.81;;
67294;Laerm;58160;51.434;5.978;2022-08-19T00:39:31;31.27;29.70;32.89;;
67294;Laerm;58160;51.434;5.978;2022-08-19T00:39:41;31.30;29.83;39.46;;
67294;Laerm;58160;51.434;5.978;2022-08-19T00:39:51;32.00;29.72;45.72;;
67294;Laerm;58160;51.434;5.978;2022-08-19T00:40:02;32.34;30.05;45.51;;
67294;Laerm;58160;51.434;5.978;2022-08-19T00:40:14;32.30;29.73;48.64;;
67294;Laerm;58160;51.434;5.978;2022-08-19T00:40:24;31.86;29.91;44.48;;
67294;Laerm;58160;51.434;5.978;2022-08-19T00:40:35;30.88;29.88;32.36;;
67294;Laerm;58160;51.434;5.978;2022-08-19T00:40:45;31.18;30.07;37.85;;
67294;Laerm;58160;51.434;5.978;2022-08-19T00:40:56;32.16;29.96;37.33;;
67294;Laerm;58160;51.434;5.978;2022-08-19T00:41:07;41.35;32.34;48.83;;
67294;Laerm;58160;51.434;5.978;2022-08-19T00:41:19;48.96;32.76;58.98;;
67294;Laerm;58160;51.434;5.978;2022-08-19T00:41:31;32.42;30.21;35.68;;
67294;Laerm;58160;51.434;5.978;2022-08-19T00:41:42;31.76;30.23;37.33;;
67294;Laerm;58160;51.434;5.978;2022-08-19T00:41:52;33.42;30.33;45.02;;
67294;Laerm;58160;51.434;5.978;2022-08-19T00:42:04;31.15;29.77;38.39;;
67294;Laerm;58160;51.434;5.978;2022-08-19T00:42:16;30.98;29.53;42.47;;
67294;Laerm;58160;51.434;5.978;2022-08-19T00:42:27;30.72;29.59;38.11;;
67294;Laerm;58160;51.434;5.978;2022-08-19T00:42:38;31.73;29.40;44.64;;
67294;Laerm;58160;51.434;5.978;2022-08-19T00:42:48;31.17;29.63;41.57;;
67294;Laerm;58160;51.434;5.978;2022-08-19T00:42:59;32.43;29.64;45.82;;
67294;Laerm;58160;51.434;5.978;2022-08-19T00:43:10;32.50;29.55;48.78;;
67294;Laerm;58160;51.434;5.978;2022-08-19T00:43:21;31.27;29.37;44.79;;
67294;Laerm;58160;51.434;5.978;2022-08-19T00:43:32;31.23;29.28;42.30;;
67294;Laerm;58160;51.434;5.978;2022-08-19T00:43:43;30.57;29.36;34.87;;
67294;Laerm;58160;51.434;5.978;2022-08-19T00:44:08;30.81;29.61;39.21;;
67294;Laerm;58160;51.434;5.978;2022-08-19T00:44:31;30.63;29.54;36.40;;
67294;Laerm;58160;51.434;5.978;2022-08-19T00:44:42;30.83;29.53;37.85;;
67294;Laerm;58160;51.434;5.978;2022-08-19T00:44:53;30.83;29.28;37.81;;
67294;Laerm;58160;51.434;5.978;2022-08-19T00:45:05;30.60;29.47;32.11;;
67294;Laerm;58160;51.434;5.978;2022-08-19T00:45:19;30.70;29.17;41.55;;
67294;Laerm;58160;51.434;5.978;2022-08-19T00:45:30;31.84;29.33;47.48;;
67294;Laerm;58160;51.434;5.978;2022-08-19T00:45:46;31.23;29.39;44.59;;
67294;Laerm;58160;51.434;5.978;2022-08-19T00:45:57;30.52;29.49;32.02;;
67294;Laerm;58160;51.434;5.978;2022-08-19T00:46:07;31.89;29.49;47.50;;
67294;Laerm;58160;51.434;5.978;2022-08-19T00:46:18;30.97;29.58;41.54;;
67294;Laerm;58160;51.434;5.978;2022-08-19T00:46:28;32.00;29.40;46.73;;
67294;Laerm;58160;51.434;5.978;2022-08-19T00:46:39;31.65;29.10;46.81;;
67294;Laerm;58160;51.434;5.978;2022-08-19T00:46:51;30.51;29.27;32.09;;
67294;Laerm;58160;51.434;5.978;2022-08-19T00:47:02;30.60;29.48;36.05;;
67294;Laerm;58160;51.434;5.978;2022-08-19T00:47:13;30.60;29.43;35.77;;
67294;Laerm;58160;51.434;5.978;2022-08-19T00:47:23;32.08;29.16;44.92;;
67294;Laerm;58160;51.434;5.978;2022-08-19T00:47:34;30.49;29.05;32.91;;
67294;Laerm;58160;51.434;5.978;2022-08-19T00:47:44;30.77;29.43;36.87;;
67294;Laerm;58160;51.434;5.978;2022-08-19T00:47:55;30.65;29.52;31.73;;
67294;Laerm;58160;51.434;5.978;2022-08-19T00:48:05;30.85;29.60;40.18;;
67294;Laerm;58160;51.434;5.978;2022-08-19T00:48:16;30.88;29.34;41.18;;
67294;Laerm;58160;51.434;5.978;2022-08-19T00:48:27;30.74;29.41;36.85;;
67294;Laerm;58160;51.434;5.978;2022-08-19T00:48:37;31.71;29.39;44.82;;
67294;Laerm;58160;51.434;5.978;2022-08-19T00:48:47;31.36;29.56;42.40;;
67294;Laerm;58160;51.434;5.978;2022-08-19T00:48:58;30.59;29.24;32.26;;
67294;Laerm;58160;51.434;5.978;2022-08-19T00:49:12;30.74;29.55;35.38;;
67294;Laerm;58160;51.434;5.978;2022-08-19T00:49:28;31.53;29.25;45.91;;
67294;Laerm;58160;51.434;5.978;2022-08-19T00:49:41;30.79;29.65;32.12;;
67294;Laerm;58160;51.434;5.978;2022-08-19T00:49:55;30.84;29.56;37.83;;
67294;Laerm;58160;51.434;5.978;2022-08-19T00:50:06;31.71;29.49;44.35;;
67294;Laerm;58160;51.434;5.978;2022-08-19T00:50:20;32.76;29.30;47.60;;
67294;Laerm;58160;51.434;5.978;2022-08-19T00:50:31;31.75;29.76;45.07;;
67294;Laerm;58160;51.434;5.978;2022-08-19T00:50:42;30.68;29.65;32.23;;
67294;Laerm;58160;51.434;5.978;2022-08-19T00:50:53;30.98;29.38;42.89;;
67294;Laerm;58160;51.434;5.978;2022-08-19T00:51:05;30.89;29.51;39.79;;
67294;Laerm;58160;51.434;5.978;2022-08-19T00:51:16;32.21;29.47;44.59;;
67294;Laerm;58160;51.434;5.978;2022-08-19T00:51:27;30.84;29.49;37.57;;
67294;Laerm;58160;51.434;5.978;2022-08-19T00:51:38;31.17;29.58;41.97;;
67294;Laerm;58160;51.434;5.978;2022-08-19T00:51:51;30.76;29.43;31.92;;
67294;Laerm;58160;51.434;5.978;2022-08-19T00:52:06;30.77;29.64;32.43;;
67294;Laerm;58160;51.434;5.978;2022-08-19T00:52:23;31.66;29.34;46.69;;
67294;Laerm;58160;51.434;5.978;2022-08-19T00:52:37;31.51;29.70;44.75;;
67294;Laerm;58160;51.434;5.978;2022-08-19T00:52:49;30.64;29.58;32.00;;
67294;Laerm;58160;51.434;5.978;2022-08-19T00:53:00;30.67;29.29;32.47;;
67294;Laerm;58160;51.434;5.978;2022-08-19T00:53:14;30.97;29.17;40.55;;
67294;Laerm;58160;51.434;5.978;2022-08-19T00:53:26;32.67;29.84;48.01;;
67294;Laerm;58160;51.434;5.978;2022-08-19T00:53:37;30.81;29.49;32.87;;
67294;Laerm;58160;51.434;5.978;2022-08-19T00:53:47;30.74;29.54;34.54;;
67294;Laerm;58160;51.434;5.978;2022-08-19T00:53:58;31.48;29.47;42.20;;
67294;Laerm;58160;51.434;5.978;2022-08-19T00:54:08;30.70;29.44;32.24;;
67294;Laerm;58160;51.434;5.978;2022-08-19T00:54:19;30.80;29.61;37.09;;
67294;Laerm;58160;51.434;5.978;2022-08-19T00:54:29;32.17;29.57;44.05;;
67294;Laerm;58160;51.434;5.978;2022-08-19T00:54:42;30.88;29.45;36.74;;
67294;Laerm;58160;51.434;5.978;2022-08-19T00:54:52;31.25;29.53;41.35;;
67294;Laerm;58160;51.434;5.978;2022-08-19T00:55:04;31.40;29.81;38.27;;
67294;Laerm;58160;51.434;5.978;2022-08-19T00:55:18;33.36;30.42;46.65;;
67294;Laerm;58160;51.434;5.978;2022-08-19T00:55:28;34.50;30.86;46.99;;
67294;Laerm;58160;51.434;5.978;2022-08-19T00:55:40;34.72;31.22;38.98;;
67294;Laerm;58160;51.434;5.978;2022-08-19T00:55:53;33.48;30.39;47.20;;
67294;Laerm;58160;51.434;5.978;2022-08-19T00:56:04;31.90;29.94;33.98;;
67294;Laerm;58160;51.434;5.978;2022-08-19T00:56:16;31.44;29.83;40.29;;
67294;Laerm;58160;51.434;5.978;2022-08-19T00:56:27;31.96;29.62;45.32;;
67294;Laerm;58160;51.434;5.978;2022-08-19T00:56:38;31.14;29.32;39.19;;
67294;Laerm;58160;51.434;5.978;2022-08-19T00:56:49;31.27;29.52;42.85;;
67294;Laerm;58160;51.434;5.978;2022-08-19T00:57:01;30.85;29.54;32.20;;
67294;Laerm;58160;51.434;5.978;2022-08-19T00:57:12;31.21;29.40;43.82;;
67294;Laerm;58160;51.434;5.978;2022-08-19T00:57:29;32.01;29.69;46.23;;
67294;Laerm;58160;51.434;5.978;2022-08-19T00:57:40;31.36;29.59;42.66;;
67294;Laerm;58160;51.434;5.978;2022-08-19T00:57:53;30.93;29.58;32.19;;
67294;Laerm;58160;51.434;5.978;2022-08-19T00:58:10;31.01;29.48;33.93;;
67294;Laerm;58160;51.434;5.978;2022-08-19T00:58:22;31.56;29.65;45.29;;
67294;Laerm;58160;51.434;5.978;2022-08-19T00:58:34;31.02;29.50;34.48;;
67294;Laerm;58160;51.434;5.978;2022-08-19T00:58:45;30.91;29.79;32.79;;
67294;Laerm;58160;51.434;5.978;2022-08-19T00:58:56;30.99;29.71;35.16;;
67294;Laerm;58160;51.434;5.978;2022-08-19T00:59:08;32.13;29.57;46.62;;
67294;Laerm;58160;51.434;5.978;2022-08-19T00:59:19;31.53;29.61;43.89;;
67294;Laerm;58160;51.434;5.978;2022-08-19T00:59:29;30.81;29.41;35.66;;
67294;Laerm;58160;51.434;5.978;2022-08-19T00:59:40;31.57;29.48;47.20;;
67294;Laerm;58160;51.434;5.978;2022-08-19T00:59:52;31.27;29.58;43.40;;
67294;Laerm;58160;51.434;5.978;2022-08-19T01:00:05;30.79;29.64;31.94;;
67294;Laerm;58160;51.434;5.978;2022-08-19T01:00:17;35.93;29.82;46.01;;
67294;Laerm;58160;51.434;5.978;2022-08-19T01:00:28;31.72;29.67;42.75;;
67294;Laerm;58160;51.434;5.978;2022-08-19T01:00:39;33.98;29.84;47.91;;
67294;Laerm;58160;51.434;5.978;2022-08-19T01:00:49;32.37;29.75;50.29;;
67294;Laerm;58160;51.434;5.978;2022-08-19T01:00:59;31.27;29.19;38.33;;
67294;Laerm;58160;51.434;5.978;2022-08-19T01:01:10;31.26;29.54;37.82;;
67294;Laerm;58160;51.434;5.978;2022-08-19T01:01:21;32.95;29.81;47.99;;
67294;Laerm;58160;51.434;5.978;2022-08-19T01:01:31;33.08;29.96;47.07;;
67294;Laerm;58160;51.434;5.978;2022-08-19T01:01:41;31.50;29.76;36.26;;
67294;Laerm;58160;51.434;5.978;2022-08-19T01:01:53;31.93;30.01;34.42;;
67294;Laerm;58160;51.434;5.978;2022-08-19T01:02:03;31.80;30.31;35.83;;
67294;Laerm;58160;51.434;5.978;2022-08-19T01:02:14;31.37;30.09;32.84;;
67294;Laerm;58160;51.434;5.978;2022-08-19T01:02:25;31.36;29.88;36.23;;